Terminal Aerodrome Forecast
Issued by NWS Sioux Falls, SD

Home | Current Version | Previous Version | Text Only | Print | Product List | Glossary Off
Versions: 1 2 3 4 5 6 7 8 9 10 11 12 13 14 15

000
FTUS43 KFSD 220915 AAA
TAFSUX
TAF AMD
KSUX 220915Z 2209/2306 05009KT 6SM BR OVC005
      TEMPO 2209/2210 VRB12G25KT 4SM TSRA SCT006 OVC025CB
     FM221100 03008KT P6SM SCT015 SCT040
     FM221500 34008KT P6SM SCT200
     FM230100 31004KT P6SM SCT120=

USA.gov is the U.S. government's official web portal to all federal, state and local government web resources and services.